Rockville, Maryland
Current Conditions -  °F | °C
As of 4:55 AM on Thursday 23 Oct 2014 (Local Time) from KGAI Reporting Station
Overcast Overcast  
Wind Chill: 50°   Ceiling: 3000
Heat Index: 50°   Visibility: 10mi
Dew Point: 41°   Wind: 8mph
Humidity: 71%   Direction: 310°NW
Pressure: 29.92"   Gusts: 16mph
Location:  39.08°N, 77.15°W
Report Text: KGAI 230855Z 31007G14KT 290V350 10SM OVC030 10/05 A2992 RMK AO1 57007
Loading
Personal Weather Stations






























Interactive Weather Map New forecast layout! Learn more

10-Day Weather Forecast

Advertisements
Track Severe Weather on mobile